sensor_id;sensor_type;location;lat;lon;timestamp;P1;durP1;ratioP1;P2;durP2;ratioP2
65035;SDS011;51603;49.300;8.880;2022-12-18T00:02:16;94.83;;;49.43;;
65035;SDS011;51603;49.300;8.880;2022-12-18T00:04:41;61.10;;;38.50;;
65035;SDS011;51603;49.300;8.880;2022-12-18T00:07:07;53.67;;;36.40;;
65035;SDS011;51603;49.300;8.880;2022-12-18T00:09:32;57.73;;;35.37;;
65035;SDS011;51603;49.300;8.880;2022-12-18T00:11:58;56.87;;;35.97;;
65035;SDS011;51603;49.300;8.880;2022-12-18T00:14:23;52.00;;;33.70;;
65035;SDS011;51603;49.300;8.880;2022-12-18T00:16:49;51.10;;;33.07;;
65035;SDS011;51603;49.300;8.880;2022-12-18T00:19:14;45.23;;;31.67;;
65035;SDS011;51603;49.300;8.880;2022-12-18T00:21:40;47.20;;;31.97;;
65035;SDS011;51603;49.300;8.880;2022-12-18T00:24:07;46.67;;;33.58;;
65035;SDS011;51603;49.300;8.880;2022-12-18T00:26:33;53.43;;;33.30;;
65035;SDS011;51603;49.300;8.880;2022-12-18T00:29:01;52.47;;;33.75;;
65035;SDS011;51603;49.300;8.880;2022-12-18T00:31:32;48.42;;;33.25;;
65035;SDS011;51603;49.300;8.880;2022-12-18T00:33:58;43.50;;;29.60;;
65035;SDS011;51603;49.300;8.880;2022-12-18T00:36:25;51.43;;;33.27;;
65035;SDS011;51603;49.300;8.880;2022-12-18T00:38:56;47.58;;;31.58;;
65035;SDS011;51603;49.300;8.880;2022-12-18T00:41:22;52.72;;;35.33;;
65035;SDS011;51603;49.300;8.880;2022-12-18T00:44:09;46.42;;;31.13;;
65035;SDS011;51603;49.300;8.880;2022-12-18T00:46:36;50.17;;;32.90;;
65035;SDS011;51603;49.300;8.880;2022-12-18T00:49:02;52.10;;;33.33;;
65035;SDS011;51603;49.300;8.880;2022-12-18T00:51:28;50.80;;;34.17;;
65035;SDS011;51603;49.300;8.880;2022-12-18T00:53:53;44.30;;;31.17;;
65035;SDS011;51603;49.300;8.880;2022-12-18T00:56:19;52.00;;;34.67;;
65035;SDS011;51603;49.300;8.880;2022-12-18T00:58:46;48.45;;;32.22;;
65035;SDS011;51603;49.300;8.880;2022-12-18T01:01:12;47.37;;;31.97;;
65035;SDS011;51603;49.300;8.880;2022-12-18T01:03:37;44.43;;;31.30;;
65035;SDS011;51603;49.300;8.880;2022-12-18T01:06:10;50.73;;;31.60;;
65035;SDS011;51603;49.300;8.880;2022-12-18T01:08:36;45.25;;;32.67;;
65035;SDS011;51603;49.300;8.880;2022-12-18T01:11:13;51.22;;;34.00;;
65035;SDS011;51603;49.300;8.880;2022-12-18T01:13:41;54.30;;;32.00;;
65035;SDS011;51603;49.300;8.880;2022-12-18T01:16:07;50.75;;;32.10;;
65035;SDS011;51603;49.300;8.880;2022-12-18T01:18:33;48.05;;;33.05;;
65035;SDS011;51603;49.300;8.880;2022-12-18T01:20:59;43.03;;;31.73;;
65035;SDS011;51603;49.300;8.880;2022-12-18T01:23:25;49.00;;;30.33;;
65035;SDS011;51603;49.300;8.880;2022-12-18T01:25:50;46.97;;;30.53;;
65035;SDS011;51603;49.300;8.880;2022-12-18T01:28:16;49.33;;;32.77;;
65035;SDS011;51603;49.300;8.880;2022-12-18T01:30:41;52.37;;;33.20;;
65035;SDS011;51603;49.300;8.880;2022-12-18T01:33:07;44.47;;;31.70;;
65035;SDS011;51603;49.300;8.880;2022-12-18T01:35:33;55.17;;;34.57;;
65035;SDS011;51603;49.300;8.880;2022-12-18T01:38:04;52.28;;;34.88;;
65035;SDS011;51603;49.300;8.880;2022-12-18T01:40:30;48.87;;;32.37;;
65035;SDS011;51603;49.300;8.880;2022-12-18T01:42:55;46.70;;;33.83;;
65035;SDS011;51603;49.300;8.880;2022-12-18T01:45:27;50.93;;;33.70;;
65035;SDS011;51603;49.300;8.880;2022-12-18T01:48:04;47.60;;;35.50;;
65035;SDS011;51603;49.300;8.880;2022-12-18T01:50:32;50.72;;;32.30;;
65035;SDS011;51603;49.300;8.880;2022-12-18T01:53:14;48.58;;;31.77;;
65035;SDS011;51603;49.300;8.880;2022-12-18T01:55:48;47.28;;;31.30;;
65035;SDS011;51603;49.300;8.880;2022-12-18T01:58:19;56.97;;;34.63;;
65035;SDS011;51603;49.300;8.880;2022-12-18T02:00:48;59.08;;;36.65;;
65035;SDS011;51603;49.300;8.880;2022-12-18T02:03:13;49.13;;;33.77;;
65035;SDS011;51603;49.300;8.880;2022-12-18T02:08:34;59.65;;;35.75;;
65035;SDS011;51603;49.300;8.880;2022-12-18T02:16:22;48.95;;;31.42;;
65035;SDS011;51603;49.300;8.880;2022-12-18T02:18:56;54.38;;;33.15;;
65035;SDS011;51603;49.300;8.880;2022-12-18T02:21:45;53.13;;;33.45;;
65035;SDS011;51603;49.300;8.880;2022-12-18T02:27:04;53.13;;;34.42;;
65035;SDS011;51603;49.300;8.880;2022-12-18T02:29:39;47.47;;;33.40;;
65035;SDS011;51603;49.300;8.880;2022-12-18T02:32:14;52.65;;;34.67;;
65035;SDS011;51603;49.300;8.880;2022-12-18T02:35:02;56.72;;;33.40;;
65035;SDS011;51603;49.300;8.880;2022-12-18T02:37:30;56.67;;;32.90;;
65035;SDS011;51603;49.300;8.880;2022-12-18T02:39:59;54.40;;;32.78;;
65035;SDS011;51603;49.300;8.880;2022-12-18T02:42:28;53.88;;;35.35;;
65035;SDS011;51603;49.300;8.880;2022-12-18T02:44:54;50.03;;;36.70;;
65035;SDS011;51603;49.300;8.880;2022-12-18T02:47:24;49.97;;;33.60;;
65035;SDS011;51603;49.300;8.880;2022-12-18T03:00:53;52.75;;;34.47;;
65035;SDS011;51603;49.300;8.880;2022-12-18T03:03:39;54.50;;;33.78;;
65035;SDS011;51603;49.300;8.880;2022-12-18T03:06:13;57.75;;;34.15;;
65035;SDS011;51603;49.300;8.880;2022-12-18T03:08:44;54.42;;;35.00;;
65035;SDS011;51603;49.300;8.880;2022-12-18T03:11:14;54.50;;;34.17;;
65035;SDS011;51603;49.300;8.880;2022-12-18T03:13:44;47.20;;;33.27;;
65035;SDS011;51603;49.300;8.880;2022-12-18T03:16:15;49.92;;;33.97;;
65035;SDS011;51603;49.300;8.880;2022-12-18T03:18:52;51.50;;;32.50;;
65035;SDS011;51603;49.300;8.880;2022-12-18T03:21:23;51.92;;;33.83;;
65035;SDS011;51603;49.300;8.880;2022-12-18T03:23:52;51.78;;;33.40;;
65035;SDS011;51603;49.300;8.880;2022-12-18T03:26:19;45.92;;;31.70;;
65035;SDS011;51603;49.300;8.880;2022-12-18T03:28:51;49.53;;;32.58;;
65035;SDS011;51603;49.300;8.880;2022-12-18T03:31:22;44.25;;;31.08;;
65035;SDS011;51603;49.300;8.880;2022-12-18T03:33:52;49.95;;;32.67;;
65035;SDS011;51603;49.300;8.880;2022-12-18T03:36:19;49.85;;;32.67;;
65035;SDS011;51603;49.300;8.880;2022-12-18T03:38:45;50.03;;;31.10;;
65035;SDS011;51603;49.300;8.880;2022-12-18T03:43:49;55.05;;;33.88;;
65035;SDS011;51603;49.300;8.880;2022-12-18T03:46:47;52.05;;;33.55;;
65035;SDS011;51603;49.300;8.880;2022-12-18T03:52:18;53.72;;;33.00;;
65035;SDS011;51603;49.300;8.880;2022-12-18T03:54:50;53.20;;;33.53;;
65035;SDS011;51603;49.300;8.880;2022-12-18T03:57:20;51.83;;;33.15;;
65035;SDS011;51603;49.300;8.880;2022-12-18T03:59:49;53.47;;;35.03;;
65035;SDS011;51603;49.300;8.880;2022-12-18T04:02:19;58.35;;;36.85;;
65035;SDS011;51603;49.300;8.880;2022-12-18T04:04:47;55.17;;;32.78;;
65035;SDS011;51603;49.300;8.880;2022-12-18T04:07:16;54.95;;;35.63;;
65035;SDS011;51603;49.300;8.880;2022-12-18T04:09:43;53.30;;;33.92;;
65035;SDS011;51603;49.300;8.880;2022-12-18T04:12:10;49.30;;;32.33;;
65035;SDS011;51603;49.300;8.880;2022-12-18T04:14:36;60.73;;;35.93;;
65035;SDS011;51603;49.300;8.880;2022-12-18T04:17:02;55.13;;;35.37;;
65035;SDS011;51603;49.300;8.880;2022-12-18T04:19:28;54.78;;;33.30;;
65035;SDS011;51603;49.300;8.880;2022-12-18T04:21:53;55.03;;;35.27;;
65035;SDS011;51603;49.300;8.880;2022-12-18T04:24:19;62.00;;;35.57;;
65035;SDS011;51603;49.300;8.880;2022-12-18T04:26:45;55.63;;;35.60;;
65035;SDS011;51603;49.300;8.880;2022-12-18T04:29:10;53.30;;;34.77;;
65035;SDS011;51603;49.300;8.880;2022-12-18T04:31:36;51.93;;;32.47;;
65035;SDS011;51603;49.300;8.880;2022-12-18T04:34:02;52.60;;;34.93;;
65035;SDS011;51603;49.300;8.880;2022-12-18T04:36:27;56.20;;;36.43;;
65035;SDS011;51603;49.300;8.880;2022-12-18T04:38:53;49.53;;;31.83;;
65035;SDS011;51603;49.300;8.880;2022-12-18T04:41:19;58.80;;;37.70;;
65035;SDS011;51603;49.300;8.880;2022-12-18T04:43:44;52.80;;;35.33;;
65035;SDS011;51603;49.300;8.880;2022-12-18T04:46:10;56.63;;;34.63;;
65035;SDS011;51603;49.300;8.880;2022-12-18T04:48:35;50.63;;;34.93;;
65035;SDS011;51603;49.300;8.880;2022-12-18T04:51:01;47.20;;;33.93;;
65035;SDS011;51603;49.300;8.880;2022-12-18T04:53:27;51.90;;;35.35;;
65035;SDS011;51603;49.300;8.880;2022-12-18T04:56:03;57.17;;;33.57;;
65035;SDS011;51603;49.300;8.880;2022-12-18T04:58:28;49.72;;;31.23;;
65035;SDS011;51603;49.300;8.880;2022-12-18T05:00:54;55.43;;;33.30;;
65035;SDS011;51603;49.300;8.880;2022-12-18T05:03:19;55.37;;;35.20;;
65035;SDS011;51603;49.300;8.880;2022-12-18T05:05:45;56.23;;;34.20;;
65035;SDS011;51603;49.300;8.880;2022-12-18T05:08:14;52.17;;;32.40;;
65035;SDS011;51603;49.300;8.880;2022-12-18T05:10:39;58.23;;;35.60;;
65035;SDS011;51603;49.300;8.880;2022-12-18T05:13:05;54.53;;;33.93;;
65035;SDS011;51603;49.300;8.880;2022-12-18T05:15:31;53.30;;;34.37;;
65035;SDS011;51603;49.300;8.880;2022-12-18T05:17:57;49.85;;;33.28;;
65035;SDS011;51603;49.300;8.880;2022-12-18T05:20:24;50.15;;;31.08;;
65035;SDS011;51603;49.300;8.880;2022-12-18T05:22:50;63.97;;;35.70;;
65035;SDS011;51603;49.300;8.880;2022-12-18T05:25:15;58.00;;;33.58;;
65035;SDS011;51603;49.300;8.880;2022-12-18T05:27:41;53.43;;;33.53;;
65035;SDS011;51603;49.300;8.880;2022-12-18T05:30:07;56.50;;;35.40;;
65035;SDS011;51603;49.300;8.880;2022-12-18T05:32:33;55.92;;;34.97;;
65035;SDS011;51603;49.300;8.880;2022-12-18T05:34:59;56.77;;;34.20;;
65035;SDS011;51603;49.300;8.880;2022-12-18T05:37:25;56.10;;;33.70;;
65035;SDS011;51603;49.300;8.880;2022-12-18T05:39:50;53.17;;;34.80;;
65035;SDS011;51603;49.300;8.880;2022-12-18T05:42:16;56.10;;;34.87;;
65035;SDS011;51603;49.300;8.880;2022-12-18T05:44:42;55.50;;;34.63;;
65035;SDS011;51603;49.300;8.880;2022-12-18T05:47:08;56.63;;;34.38;;
65035;SDS011;51603;49.300;8.880;2022-12-18T05:49:33;52.50;;;32.13;;
65035;SDS011;51603;49.300;8.880;2022-12-18T05:51:59;58.37;;;35.53;;
65035;SDS011;51603;49.300;8.880;2022-12-18T05:54:26;56.97;;;34.00;;
65035;SDS011;51603;49.300;8.880;2022-12-18T05:56:53;56.83;;;34.45;;
65035;SDS011;51603;49.300;8.880;2022-12-18T05:59:19;55.43;;;33.50;;
65035;SDS011;51603;49.300;8.880;2022-12-18T06:01:44;55.92;;;34.88;;
65035;SDS011;51603;49.300;8.880;2022-12-18T06:04:10;50.13;;;31.40;;
65035;SDS011;51603;49.300;8.880;2022-12-18T06:06:36;55.53;;;33.87;;
65035;SDS011;51603;49.300;8.880;2022-12-18T06:09:02;65.70;;;36.90;;
65035;SDS011;51603;49.300;8.880;2022-12-18T06:11:33;61.40;;;34.75;;
65035;SDS011;51603;49.300;8.880;2022-12-18T06:13:59;51.30;;;32.97;;
65035;SDS011;51603;49.300;8.880;2022-12-18T06:16:25;56.00;;;34.67;;
65035;SDS011;51603;49.300;8.880;2022-12-18T06:18:51;56.63;;;36.28;;
65035;SDS011;51603;49.300;8.880;2022-12-18T06:21:17;62.97;;;36.30;;
65035;SDS011;51603;49.300;8.880;2022-12-18T06:23:43;58.33;;;35.47;;
65035;SDS011;51603;49.300;8.880;2022-12-18T06:26:09;54.03;;;34.97;;
65035;SDS011;51603;49.300;8.880;2022-12-18T06:28:36;67.28;;;36.15;;
65035;SDS011;51603;49.300;8.880;2022-12-18T06:31:03;59.43;;;34.70;;
65035;SDS011;51603;49.300;8.880;2022-12-18T06:33:29;62.30;;;36.65;;
65035;SDS011;51603;49.300;8.880;2022-12-18T06:35:59;58.83;;;37.20;;
65035;SDS011;51603;49.300;8.880;2022-12-18T06:38:32;48.70;;;32.97;;
65035;SDS011;51603;49.300;8.880;2022-12-18T06:40:59;53.35;;;34.22;;
65035;SDS011;51603;49.300;8.880;2022-12-18T06:43:25;64.37;;;34.70;;
65035;SDS011;51603;49.300;8.880;2022-12-18T06:45:50;51.03;;;32.67;;
65035;SDS011;51603;49.300;8.880;2022-12-18T06:48:20;54.47;;;33.60;;
65035;SDS011;51603;49.300;8.880;2022-12-18T06:50:46;60.53;;;37.05;;
65035;SDS011;51603;49.300;8.880;2022-12-18T06:53:12;56.07;;;33.87;;
65035;SDS011;51603;49.300;8.880;2022-12-18T06:55:37;58.40;;;34.53;;
65035;SDS011;51603;49.300;8.880;2022-12-18T06:58:03;57.47;;;34.07;;
65035;SDS011;51603;49.300;8.880;2022-12-18T07:00:28;54.97;;;33.63;;
65035;SDS011;51603;49.300;8.880;2022-12-18T07:02:54;58.43;;;33.60;;
65035;SDS011;51603;49.300;8.880;2022-12-18T07:05:19;59.70;;;35.97;;
65035;SDS011;51603;49.300;8.880;2022-12-18T07:07:45;58.13;;;35.43;;
65035;SDS011;51603;49.300;8.880;2022-12-18T07:10:10;58.20;;;37.20;;
65035;SDS011;51603;49.300;8.880;2022-12-18T07:12:36;49.77;;;33.20;;
65035;SDS011;51603;49.300;8.880;2022-12-18T07:15:02;61.03;;;36.60;;
65035;SDS011;51603;49.300;8.880;2022-12-18T07:17:28;55.63;;;35.05;;
65035;SDS011;51603;49.300;8.880;2022-12-18T07:19:54;51.45;;;34.20;;
65035;SDS011;51603;49.300;8.880;2022-12-18T07:22:20;58.97;;;36.17;;
65035;SDS011;51603;49.300;8.880;2022-12-18T07:24:45;52.53;;;33.27;;
65035;SDS011;51603;49.300;8.880;2022-12-18T07:27:11;59.27;;;34.10;;
65035;SDS011;51603;49.300;8.880;2022-12-18T07:29:36;59.53;;;36.93;;
65035;SDS011;51603;49.300;8.880;2022-12-18T07:32:02;55.53;;;33.23;;
65035;SDS011;51603;49.300;8.880;2022-12-18T07:34:27;53.73;;;35.37;;
65035;SDS011;51603;49.300;8.880;2022-12-18T07:36:53;57.10;;;33.70;;
65035;SDS011;51603;49.300;8.880;2022-12-18T07:39:18;62.40;;;38.57;;
65035;SDS011;51603;49.300;8.880;2022-12-18T07:41:44;66.23;;;38.03;;
65035;SDS011;51603;49.300;8.880;2022-12-18T07:44:29;65.63;;;40.15;;
65035;SDS011;51603;49.300;8.880;2022-12-18T07:46:55;66.70;;;41.20;;
65035;SDS011;51603;49.300;8.880;2022-12-18T07:49:20;68.43;;;41.50;;
65035;SDS011;51603;49.300;8.880;2022-12-18T07:51:46;60.20;;;34.13;;
65035;SDS011;51603;49.300;8.880;2022-12-18T08:04:20;64.50;;;35.55;;
65035;SDS011;51603;49.300;8.880;2022-12-18T08:06:46;50.80;;;34.40;;
65035;SDS011;51603;49.300;8.880;2022-12-18T08:09:11;58.87;;;33.57;;
65035;SDS011;51603;49.300;8.880;2022-12-18T08:11:37;52.50;;;34.37;;
65035;SDS011;51603;49.300;8.880;2022-12-18T08:14:03;56.87;;;35.43;;
65035;SDS011;51603;49.300;8.880;2022-12-18T08:16:28;57.07;;;33.53;;
65035;SDS011;51603;49.300;8.880;2022-12-18T08:18:55;57.35;;;35.13;;
65035;SDS011;51603;49.300;8.880;2022-12-18T08:21:22;59.05;;;34.60;;
65035;SDS011;51603;49.300;8.880;2022-12-18T08:23:50;50.63;;;33.28;;
65035;SDS011;51603;49.300;8.880;2022-12-18T08:26:16;57.05;;;32.20;;
65035;SDS011;51603;49.300;8.880;2022-12-18T08:28:42;60.53;;;33.70;;
65035;SDS011;51603;49.300;8.880;2022-12-18T08:31:08;64.27;;;36.20;;
65035;SDS011;51603;49.300;8.880;2022-12-18T08:33:34;60.58;;;33.55;;
65035;SDS011;51603;49.300;8.880;2022-12-18T08:36:03;59.10;;;37.05;;
65035;SDS011;51603;49.300;8.880;2022-12-18T08:38:29;59.20;;;35.33;;
65035;SDS011;51603;49.300;8.880;2022-12-18T08:40:59;57.55;;;34.00;;
65035;SDS011;51603;49.300;8.880;2022-12-18T08:43:26;58.83;;;32.25;;
65035;SDS011;51603;49.300;8.880;2022-12-18T08:46:11;61.78;;;32.92;;
65035;SDS011;51603;49.300;8.880;2022-12-18T08:48:36;54.95;;;32.88;;
65035;SDS011;51603;49.300;8.880;2022-12-18T08:51:02;51.03;;;33.67;;
65035;SDS011;51603;49.300;8.880;2022-12-18T08:53:28;57.83;;;32.57;;
65035;SDS011;51603;49.300;8.880;2022-12-18T08:55:53;53.37;;;30.60;;
65035;SDS011;51603;49.300;8.880;2022-12-18T08:58:21;54.15;;;33.20;;
65035;SDS011;51603;49.300;8.880;2022-12-18T09:00:46;54.57;;;31.90;;
65035;SDS011;51603;49.300;8.880;2022-12-18T09:03:12;57.80;;;33.60;;
65035;SDS011;51603;49.300;8.880;2022-12-18T09:05:39;52.88;;;32.80;;
65035;SDS011;51603;49.300;8.880;2022-12-18T09:08:05;59.77;;;32.17;;
65035;SDS011;51603;49.300;8.880;2022-12-18T09:10:30;64.13;;;33.53;;
65035;SDS011;51603;49.300;8.880;2022-12-18T09:12:56;63.10;;;34.13;;
65035;SDS011;51603;49.300;8.880;2022-12-18T09:15:22;52.57;;;31.10;;
65035;SDS011;51603;49.300;8.880;2022-12-18T09:17:48;58.40;;;34.40;;
65035;SDS011;51603;49.300;8.880;2022-12-18T09:20:14;61.35;;;34.42;;
65035;SDS011;51603;49.300;8.880;2022-12-18T09:22:41;59.10;;;33.03;;
65035;SDS011;51603;49.300;8.880;2022-12-18T09:25:06;57.77;;;33.40;;
65035;SDS011;51603;49.300;8.880;2022-12-18T10:10:36;60.53;;;33.25;;
65035;SDS011;51603;49.300;8.880;2022-12-18T10:18:34;55.00;;;30.67;;
65035;SDS011;51603;49.300;8.880;2022-12-18T10:21:48;58.40;;;32.05;;
65035;SDS011;51603;49.300;8.880;2022-12-18T10:26:58;54.08;;;29.85;;
65035;SDS011;51603;49.300;8.880;2022-12-18T10:29:41;55.42;;;31.27;;
65035;SDS011;51603;49.300;8.880;2022-12-18T10:32:15;59.10;;;32.05;;
65035;SDS011;51603;49.300;8.880;2022-12-18T10:34:53;58.85;;;32.33;;
65035;SDS011;51603;49.300;8.880;2022-12-18T10:37:22;55.88;;;29.75;;
65035;SDS011;51603;49.300;8.880;2022-12-18T10:42:36;52.80;;;31.48;;
65035;SDS011;51603;49.300;8.880;2022-12-18T10:45:13;50.05;;;30.13;;
65035;SDS011;51603;49.300;8.880;2022-12-18T10:47:44;53.38;;;30.63;;
65035;SDS011;51603;49.300;8.880;2022-12-18T10:50:28;54.00;;;32.75;;
65035;SDS011;51603;49.300;8.880;2022-12-18T10:52:55;55.38;;;30.40;;
65035;SDS011;51603;49.300;8.880;2022-12-18T10:55:24;52.30;;;31.90;;
65035;SDS011;51603;49.300;8.880;2022-12-18T10:57:56;57.55;;;30.48;;
65035;SDS011;51603;49.300;8.880;2022-12-18T11:00:45;60.25;;;31.48;;
65035;SDS011;51603;49.300;8.880;2022-12-18T11:03:39;54.35;;;30.65;;
65035;SDS011;51603;49.300;8.880;2022-12-18T11:06:21;51.05;;;28.77;;
65035;SDS011;51603;49.300;8.880;2022-12-18T11:11:50;52.72;;;28.98;;
65035;SDS011;51603;49.300;8.880;2022-12-18T11:14:21;54.60;;;29.88;;
65035;SDS011;51603;49.300;8.880;2022-12-18T11:16:50;54.00;;;31.70;;
65035;SDS011;51603;49.300;8.880;2022-12-18T11:19:22;56.15;;;31.65;;
65035;SDS011;51603;49.300;8.880;2022-12-18T11:21:49;52.40;;;29.17;;
65035;SDS011;51603;49.300;8.880;2022-12-18T11:24:18;55.35;;;30.42;;
65035;SDS011;51603;49.300;8.880;2022-12-18T11:26:56;45.38;;;28.83;;
65035;SDS011;51603;49.300;8.880;2022-12-18T11:32:13;53.75;;;28.65;;
65035;SDS011;51603;49.300;8.880;2022-12-18T11:34:51;54.45;;;29.45;;
65035;SDS011;51603;49.300;8.880;2022-12-18T11:37:35;51.80;;;29.17;;
65035;SDS011;51603;49.300;8.880;2022-12-18T11:40:03;52.50;;;29.85;;
65035;SDS011;51603;49.300;8.880;2022-12-18T11:42:55;48.78;;;28.33;;
65035;SDS011;51603;49.300;8.880;2022-12-18T11:45:28;48.92;;;28.02;;
65035;SDS011;51603;49.300;8.880;2022-12-18T11:48:02;53.58;;;28.00;;
65035;SDS011;51603;49.300;8.880;2022-12-18T11:50:44;56.00;;;30.23;;
65035;SDS011;51603;49.300;8.880;2022-12-18T11:53:15;52.95;;;29.02;;
65035;SDS011;51603;49.300;8.880;2022-12-18T11:55:50;45.42;;;27.55;;
65035;SDS011;51603;49.300;8.880;2022-12-18T12:01:18;58.67;;;30.92;;
65035;SDS011;51603;49.300;8.880;2022-12-18T12:04:15;48.72;;;29.60;;
65035;SDS011;51603;49.300;8.880;2022-12-18T12:15:41;48.67;;;27.08;;
65035;SDS011;51603;49.300;8.880;2022-12-18T12:33:14;51.38;;;26.67;;
65035;SDS011;51603;49.300;8.880;2022-12-18T12:38:34;47.15;;;27.38;;
65035;SDS011;51603;49.300;8.880;2022-12-18T12:41:22;50.13;;;27.60;;
65035;SDS011;51603;49.300;8.880;2022-12-18T12:44:13;48.40;;;26.08;;
65035;SDS011;51603;49.300;8.880;2022-12-18T12:46:44;46.35;;;26.77;;
65035;SDS011;51603;49.300;8.880;2022-12-18T12:49:20;48.03;;;27.85;;
65035;SDS011;51603;49.300;8.880;2022-12-18T12:52:05;54.25;;;29.52;;
65035;SDS011;51603;49.300;8.880;2022-12-18T12:54:39;49.20;;;28.38;;
65035;SDS011;51603;49.300;8.880;2022-12-18T12:59:50;44.70;;;28.05;;
65035;SDS011;51603;49.300;8.880;2022-12-18T13:02:50;45.33;;;25.63;;
65035;SDS011;51603;49.300;8.880;2022-12-18T13:08:28;50.65;;;31.58;;
65035;SDS011;51603;49.300;8.880;2022-12-18T13:10:56;46.38;;;28.45;;
65035;SDS011;51603;49.300;8.880;2022-12-18T13:13:49;49.30;;;28.50;;
65035;SDS011;51603;49.300;8.880;2022-12-18T13:16:20;46.40;;;26.13;;
65035;SDS011;51603;49.300;8.880;2022-12-18T13:18:51;47.97;;;27.35;;
65035;SDS011;51603;49.300;8.880;2022-12-18T13:21:31;49.00;;;26.30;;
65035;SDS011;51603;49.300;8.880;2022-12-18T13:26:50;40.47;;;23.92;;
65035;SDS011;51603;49.300;8.880;2022-12-18T13:29:49;50.90;;;28.67;;
65035;SDS011;51603;49.300;8.880;2022-12-18T13:32:22;45.17;;;25.45;;
65035;SDS011;51603;49.300;8.880;2022-12-18T13:34:49;46.05;;;26.25;;
65035;SDS011;51603;49.300;8.880;2022-12-18T13:38:00;41.88;;;24.40;;
65035;SDS011;51603;49.300;8.880;2022-12-18T13:43:14;47.90;;;27.63;;
65035;SDS011;51603;49.300;8.880;2022-12-18T13:46:05;35.88;;;23.38;;
65035;SDS011;51603;49.300;8.880;2022-12-18T13:49:15;47.13;;;26.17;;
65035;SDS011;51603;49.300;8.880;2022-12-18T13:51:46;45.90;;;25.77;;
65035;SDS011;51603;49.300;8.880;2022-12-18T13:57:02;50.63;;;27.25;;
65035;SDS011;51603;49.300;8.880;2022-12-18T13:59:33;47.47;;;28.80;;
65035;SDS011;51603;49.300;8.880;2022-12-18T14:02:16;40.50;;;24.08;;
65035;SDS011;51603;49.300;8.880;2022-12-18T14:04:45;75.35;;;39.40;;
65035;SDS011;51603;49.300;8.880;2022-12-18T14:07:13;78.28;;;43.90;;
65035;SDS011;51603;49.300;8.880;2022-12-18T14:09:42;45.13;;;25.48;;
65035;SDS011;51603;49.300;8.880;2022-12-18T14:12:18;55.33;;;28.88;;
65035;SDS011;51603;49.300;8.880;2022-12-18T14:17:57;52.17;;;27.35;;
65035;SDS011;51603;49.300;8.880;2022-12-18T14:20:25;47.10;;;28.40;;
65035;SDS011;51603;49.300;8.880;2022-12-18T14:22:52;51.38;;;29.75;;
65035;SDS011;51603;49.300;8.880;2022-12-18T14:25:19;48.80;;;26.80;;
65035;SDS011;51603;49.300;8.880;2022-12-18T14:27:51;50.75;;;28.63;;
65035;SDS011;51603;49.300;8.880;2022-12-18T14:30:32;55.58;;;29.35;;
65035;SDS011;51603;49.300;8.880;2022-12-18T14:33:01;49.25;;;27.20;;
65035;SDS011;51603;49.300;8.880;2022-12-18T14:35:28;57.97;;;30.05;;
65035;SDS011;51603;49.300;8.880;2022-12-18T14:37:55;50.07;;;27.70;;
65035;SDS011;51603;49.300;8.880;2022-12-18T14:40:44;52.78;;;29.85;;
65035;SDS011;51603;49.300;8.880;2022-12-18T14:43:12;54.20;;;29.10;;
65035;SDS011;51603;49.300;8.880;2022-12-18T14:45:44;47.63;;;29.30;;
65035;SDS011;51603;49.300;8.880;2022-12-18T14:50:40;55.88;;;30.13;;
65035;SDS011;51603;49.300;8.880;2022-12-18T14:53:06;42.10;;;26.17;;
65035;SDS011;51603;49.300;8.880;2022-12-18T14:55:43;52.78;;;26.63;;
65035;SDS011;51603;49.300;8.880;2022-12-18T14:58:11;47.85;;;28.42;;
65035;SDS011;51603;49.300;8.880;2022-12-18T15:00:41;51.03;;;28.33;;
65035;SDS011;51603;49.300;8.880;2022-12-18T15:03:07;54.60;;;31.00;;
65035;SDS011;51603;49.300;8.880;2022-12-18T15:05:34;51.95;;;30.52;;
65035;SDS011;51603;49.300;8.880;2022-12-18T15:08:00;55.92;;;29.27;;
65035;SDS011;51603;49.300;8.880;2022-12-18T15:10:33;51.85;;;26.48;;
65035;SDS011;51603;49.300;8.880;2022-12-18T15:18:04;56.80;;;30.50;;
65035;SDS011;51603;49.300;8.880;2022-12-18T15:20:41;53.70;;;29.42;;
65035;SDS011;51603;49.300;8.880;2022-12-18T15:23:24;50.47;;;27.25;;
65035;SDS011;51603;49.300;8.880;2022-12-18T15:25:56;49.53;;;28.38;;
65035;SDS011;51603;49.300;8.880;2022-12-18T15:28:25;54.00;;;28.73;;
65035;SDS011;51603;49.300;8.880;2022-12-18T15:31:01;51.47;;;27.02;;
65035;SDS011;51603;49.300;8.880;2022-12-18T15:33:30;59.97;;;32.45;;
65035;SDS011;51603;49.300;8.880;2022-12-18T15:35:58;50.45;;;30.13;;
65035;SDS011;51603;49.300;8.880;2022-12-18T15:38:25;52.42;;;27.20;;
65035;SDS011;51603;49.300;8.880;2022-12-18T15:40:52;52.22;;;29.73;;
65035;SDS011;51603;49.300;8.880;2022-12-18T15:43:20;54.75;;;29.48;;
65035;SDS011;51603;49.300;8.880;2022-12-18T15:46:05;51.53;;;29.30;;
65035;SDS011;51603;49.300;8.880;2022-12-18T15:48:39;50.10;;;27.52;;
65035;SDS011;51603;49.300;8.880;2022-12-18T15:51:25;51.95;;;28.67;;
65035;SDS011;51603;49.300;8.880;2022-12-18T15:53:55;53.20;;;30.48;;
65035;SDS011;51603;49.300;8.880;2022-12-18T15:56:23;55.85;;;30.25;;
65035;SDS011;51603;49.300;8.880;2022-12-18T15:59:19;62.97;;;31.38;;
65035;SDS011;51603;49.300;8.880;2022-12-18T16:01:46;52.35;;;28.73;;
65035;SDS011;51603;49.300;8.880;2022-12-18T16:04:14;56.13;;;33.13;;
65035;SDS011;51603;49.300;8.880;2022-12-18T16:06:41;59.72;;;29.00;;
65035;SDS011;51603;49.300;8.880;2022-12-18T16:09:07;61.33;;;31.30;;
65035;SDS011;51603;49.300;8.880;2022-12-18T16:11:34;70.07;;;34.15;;
65035;SDS011;51603;49.300;8.880;2022-12-18T16:14:21;65.10;;;33.55;;
65035;SDS011;51603;49.300;8.880;2022-12-18T16:16:49;52.85;;;29.05;;
65035;SDS011;51603;49.300;8.880;2022-12-18T16:19:16;56.78;;;33.17;;
65035;SDS011;51603;49.300;8.880;2022-12-18T16:21:42;67.93;;;34.93;;
65035;SDS011;51603;49.300;8.880;2022-12-18T16:24:15;61.67;;;32.97;;
65035;SDS011;51603;49.300;8.880;2022-12-18T16:26:42;53.83;;;28.90;;
65035;SDS011;51603;49.300;8.880;2022-12-18T16:29:09;53.45;;;28.33;;
65035;SDS011;51603;49.300;8.880;2022-12-18T16:31:35;52.30;;;29.55;;
65035;SDS011;51603;49.300;8.880;2022-12-18T16:34:14;53.80;;;30.00;;
65035;SDS011;51603;49.300;8.880;2022-12-18T16:36:57;56.65;;;30.75;;
65035;SDS011;51603;49.300;8.880;2022-12-18T16:39:24;50.42;;;30.90;;
65035;SDS011;51603;49.300;8.880;2022-12-18T16:41:50;58.13;;;31.63;;
65035;SDS011;51603;49.300;8.880;2022-12-18T16:44:16;52.60;;;30.20;;
65035;SDS011;51603;49.300;8.880;2022-12-18T16:46:42;49.65;;;28.58;;
65035;SDS011;51603;49.300;8.880;2022-12-18T16:49:10;53.28;;;30.10;;
65035;SDS011;51603;49.300;8.880;2022-12-18T16:51:37;56.13;;;32.40;;
65035;SDS011;51603;49.300;8.880;2022-12-18T16:54:03;53.20;;;29.73;;
65035;SDS011;51603;49.300;8.880;2022-12-18T16:56:28;57.13;;;31.10;;
65035;SDS011;51603;49.300;8.880;2022-12-18T16:58:56;54.30;;;30.00;;
65035;SDS011;51603;49.300;8.880;2022-12-18T17:01:23;51.92;;;28.90;;
65035;SDS011;51603;49.300;8.880;2022-12-18T17:03:53;50.53;;;27.92;;
65035;SDS011;51603;49.300;8.880;2022-12-18T17:06:20;56.75;;;27.40;;
65035;SDS011;51603;49.300;8.880;2022-12-18T17:08:47;54.58;;;28.65;;
65035;SDS011;51603;49.300;8.880;2022-12-18T17:11:12;57.20;;;29.57;;